GLO1623 SBCF-SBBR
Flight info
| Callsign | GLO1623 |
|---|---|
| Flight time | N/A |
| Altitude | 38000 |
| Route | GIMPO UZ33 OPGOL |
| Aircraft | B737/M-SDFGIKLORWXY/LB1 |
Departure
| Time | 2026-05-08 04:20 |
|---|---|
| Airport | Tancredo Neves International Airport (SBCF) |
Arrival
| Time | N/A |
|---|---|
| Airport | Presidente Juscelino Kubitschek International Airport (SBBR) |
| Time | Latitude | Longitude | Altitude | Speed | Heading |
|---|---|---|---|---|---|
| 2026-05-08 04:10 | -19.63253 | -43.96453 | 2806 ft | 0 kts | 63° |
| 2026-05-08 04:13 | -19.63257 | -43.96462 | 2806 ft | 3 kts | 59° |
| 2026-05-08 04:13 | -19.63271 | -43.96481 | 2807 ft | 3 kts | 39° |
| 2026-05-08 04:13 | -19.63289 | -43.96492 | 2809 ft | 3 kts | 358° |
| 2026-05-08 04:13 | -19.63304 | -43.96488 | 2809 ft | 1 kts | 319° |
| 2026-05-08 04:14 | -19.63306 | -43.96486 | 2809 ft | 0 kts | 319° |
| 2026-05-08 04:15 | -19.63299 | -43.96492 | 2809 ft | 5 kts | 319° |
| 2026-05-08 04:16 | -19.63254 | -43.96532 | 2806 ft | 11 kts | 319° |
| 2026-05-08 04:16 | -19.63197 | -43.96586 | 2806 ft | 10 kts | 310° |
| 2026-05-08 04:16 | -19.63214 | -43.96648 | 2807 ft | 10 kts | 229° |
| 2026-05-08 04:16 | -19.63260 | -43.96705 | 2806 ft | 11 kts | 239° |
| 2026-05-08 04:17 | -19.63230 | -43.96779 | 2806 ft | 13 kts | 319° |
| 2026-05-08 04:17 | -19.63156 | -43.96847 | 2807 ft | 14 kts | 319° |
| 2026-05-08 04:17 | -19.63084 | -43.96913 | 2807 ft | 13 kts | 319° |
| 2026-05-08 04:17 | -19.63013 | -43.96980 | 2807 ft | 14 kts | 318° |
| 2026-05-08 04:18 | -19.62936 | -43.97051 | 2807 ft | 15 kts | 319° |
| 2026-05-08 04:18 | -19.62877 | -43.97121 | 2808 ft | 11 kts | 284° |
| 2026-05-08 04:18 | -19.62898 | -43.97174 | 2808 ft | 0 kts | 231° |
| 2026-05-08 04:19 | -19.62899 | -43.97176 | 2811 ft | 1 kts | 231° |
| 2026-05-08 04:19 | -19.62909 | -43.97188 | 2809 ft | 4 kts | 231° |
| 2026-05-08 04:19 | -19.62934 | -43.97220 | 2810 ft | 8 kts | 225° |
| 2026-05-08 04:19 | -19.62995 | -43.97222 | 2812 ft | 15 kts | 145° |
| 2026-05-08 04:20 | -19.63241 | -43.96996 | 2806 ft | 82 kts | 139° |
| 2026-05-08 04:20 | -19.63843 | -43.96439 | 2808 ft | 143 kts | 140° |
| 2026-05-08 04:20 | -19.64727 | -43.95624 | 2877 ft | 187 kts | 140° |
| 2026-05-08 04:20 | -19.65722 | -43.94741 | 3571 ft | 189 kts | 139° |
| 2026-05-08 04:21 | -19.66696 | -43.93862 | 4457 ft | 177 kts | 134° |
| 2026-05-08 04:21 | -19.67642 | -43.92976 | 5116 ft | 192 kts | 131° |
| 2026-05-08 04:21 | -19.68748 | -43.91978 | 5380 ft | 227 kts | 144° |
| 2026-05-08 04:21 | -19.70336 | -43.91578 | 5939 ft | 247 kts | 184° |
| 2026-05-08 04:22 | -19.71925 | -43.92289 | 6670 ft | 253 kts | 224° |
| 2026-05-08 04:22 | -19.73066 | -43.93682 | 7584 ft | 249 kts | 240° |
| 2026-05-08 04:22 | -19.73590 | -43.95405 | 8382 ft | 246 kts | 274° |
| 2026-05-08 04:22 | -19.73190 | -43.97133 | 9215 ft | 240 kts | 303° |
| 2026-05-08 04:23 | -19.72106 | -43.98453 | 10022 ft | 238 kts | 327° |
| 2026-05-08 04:23 | -19.70651 | -43.99243 | 10730 ft | 238 kts | 340° |
| 2026-05-08 04:23 | -19.69087 | -43.99848 | 11481 ft | 240 kts | 342° |
| 2026-05-08 04:23 | -19.67499 | -44.00431 | 12305 ft | 243 kts | 343° |
| 2026-05-08 04:24 | -19.65892 | -44.01022 | 13080 ft | 245 kts | 342° |
| 2026-05-08 04:24 | -19.64267 | -44.01628 | 13871 ft | 248 kts | 342° |
| 2026-05-08 04:24 | -19.62968 | -44.02118 | 14438 ft | 251 kts | 342° |
| 2026-05-08 04:24 | -19.61306 | -44.02750 | 15109 ft | 256 kts | 342° |
| 2026-05-08 04:25 | -19.59615 | -44.03396 | 15786 ft | 261 kts | 342° |
| 2026-05-08 04:25 | -19.57913 | -44.04047 | 16451 ft | 265 kts | 342° |
| 2026-05-08 04:25 | -19.56157 | -44.04720 | 17112 ft | 271 kts | 342° |
| 2026-05-08 04:25 | -19.54335 | -44.05388 | 17559 ft | 286 kts | 343° |
| 2026-05-08 04:26 | -19.52354 | -44.06079 | 17722 ft | 311 kts | 343° |
| 2026-05-08 04:26 | -19.50213 | -44.06824 | 17841 ft | 335 kts | 343° |
| 2026-05-08 04:26 | -19.47921 | -44.07625 | 18000 ft | 357 kts | 343° |
| 2026-05-08 04:26 | -19.45524 | -44.08466 | 18255 ft | 374 kts | 343° |
| 2026-05-08 04:27 | -19.43022 | -44.09350 | 18730 ft | 382 kts | 342° |
| 2026-05-08 04:27 | -19.40494 | -44.10273 | 19320 ft | 386 kts | 342° |
| 2026-05-08 04:27 | -19.37944 | -44.11216 | 19921 ft | 389 kts | 341° |
| 2026-05-08 04:27 | -19.35365 | -44.12168 | 20481 ft | 394 kts | 341° |
| 2026-05-08 04:28 | -19.32760 | -44.13125 | 21026 ft | 399 kts | 341° |
| 2026-05-08 04:28 | -19.30118 | -44.14093 | 21576 ft | 403 kts | 341° |
| 2026-05-08 04:28 | -19.27527 | -44.15251 | 22081 ft | 408 kts | 327° |
| 2026-05-08 04:28 | -19.25348 | -44.17139 | 22631 ft | 410 kts | 316° |
| 2026-05-08 04:29 | -19.23272 | -44.19224 | 23191 ft | 413 kts | 315° |
| 2026-05-08 04:29 | -19.21183 | -44.21353 | 23663 ft | 419 kts | 315° |
| 2026-05-08 04:29 | -19.19070 | -44.23496 | 24087 ft | 423 kts | 315° |
| 2026-05-08 04:29 | -19.16939 | -44.25639 | 24564 ft | 424 kts | 315° |
| 2026-05-08 04:30 | -19.14777 | -44.27795 | 25045 ft | 426 kts | 315° |
| 2026-05-08 04:30 | -19.12601 | -44.29952 | 25506 ft | 429 kts | 315° |
| 2026-05-08 04:30 | -19.10414 | -44.32116 | 25941 ft | 432 kts | 315° |
| 2026-05-08 04:30 | -19.08234 | -44.34270 | 26391 ft | 435 kts | 315° |
| 2026-05-08 04:31 | -19.06011 | -44.36465 | 26842 ft | 438 kts | 315° |
| 2026-05-08 04:31 | -19.03774 | -44.38674 | 27278 ft | 440 kts | 314° |
| 2026-05-08 04:31 | -19.01520 | -44.40901 | 27705 ft | 443 kts | 314° |
| 2026-05-08 04:31 | -18.99261 | -44.43132 | 28119 ft | 446 kts | 314° |
| 2026-05-08 04:32 | -18.96994 | -44.45393 | 28537 ft | 448 kts | 314° |
| 2026-05-08 04:32 | -18.94752 | -44.47643 | 28943 ft | 451 kts | 313° |
| 2026-05-08 04:32 | -18.92476 | -44.49933 | 29346 ft | 454 kts | 313° |
| 2026-05-08 04:32 | -18.90180 | -44.52244 | 29738 ft | 456 kts | 313° |
| 2026-05-08 04:33 | -18.87873 | -44.54563 | 30108 ft | 459 kts | 313° |
| 2026-05-08 04:33 | -18.85541 | -44.56905 | 30406 ft | 462 kts | 313° |
| 2026-05-08 04:33 | -18.83199 | -44.59254 | 30713 ft | 465 kts | 313° |
| 2026-05-08 04:33 | -18.80848 | -44.61610 | 31022 ft | 467 kts | 313° |
| 2026-05-08 04:34 | -18.78508 | -44.63953 | 31335 ft | 469 kts | 313° |
| 2026-05-08 04:34 | -18.76137 | -44.66326 | 31666 ft | 470 kts | 313° |
| 2026-05-08 04:34 | -18.73759 | -44.68705 | 32079 ft | 470 kts | 313° |
| 2026-05-08 04:34 | -18.71391 | -44.71072 | 32538 ft | 468 kts | 313° |
| 2026-05-08 04:35 | -18.69031 | -44.73430 | 32991 ft | 467 kts | 312° |
| 2026-05-08 04:35 | -18.66669 | -44.75789 | 33383 ft | 467 kts | 312° |
| 2026-05-08 04:35 | -18.64308 | -44.78148 | 33750 ft | 467 kts | 312° |
| 2026-05-08 04:35 | -18.61977 | -44.80476 | 34121 ft | 466 kts | 312° |
| 2026-05-08 04:36 | -18.59616 | -44.82833 | 34487 ft | 464 kts | 312° |
| 2026-05-08 04:36 | -18.57266 | -44.85176 | 34896 ft | 461 kts | 312° |
| 2026-05-08 04:36 | -18.54941 | -44.87494 | 35269 ft | 459 kts | 311° |
| 2026-05-08 04:36 | -18.52620 | -44.89809 | 35609 ft | 458 kts | 311° |
| 2026-05-08 04:37 | -18.50335 | -44.92085 | 35932 ft | 456 kts | 311° |
| 2026-05-08 04:37 | -18.48039 | -44.94373 | 36277 ft | 454 kts | 311° |
| 2026-05-08 04:37 | -18.45748 | -44.96654 | 36625 ft | 452 kts | 311° |
| 2026-05-08 04:37 | -18.43466 | -44.98926 | 36946 ft | 451 kts | 311° |
| 2026-05-08 04:38 | -18.41180 | -45.01201 | 37247 ft | 450 kts | 310° |
| 2026-05-08 04:38 | -18.38910 | -45.03460 | 37539 ft | 448 kts | 310° |
| 2026-05-08 04:38 | -18.36648 | -45.05709 | 37833 ft | 447 kts | 310° |
| 2026-05-08 04:38 | -18.34387 | -45.07957 | 38093 ft | 446 kts | 310° |
| 2026-05-08 04:39 | -18.29834 | -45.12485 | 38066 ft | 450 kts | 310° |
| 2026-05-08 04:39 | -18.25310 | -45.16972 | 38064 ft | 445 kts | 310° |
| 2026-05-08 04:40 | -18.20818 | -45.21426 | 38068 ft | 442 kts | 310° |
| 2026-05-08 04:40 | -18.16361 | -45.25846 | 38057 ft | 439 kts | 310° |
| 2026-05-08 04:41 | -18.11943 | -45.30224 | 38067 ft | 437 kts | 310° |
| 2026-05-08 04:41 | -18.07509 | -45.34614 | 38061 ft | 436 kts | 310° |
| 2026-05-08 04:42 | -18.03113 | -45.38962 | 38070 ft | 437 kts | 310° |
| 2026-05-08 04:42 | -17.98680 | -45.43341 | 38069 ft | 438 kts | 310° |
| 2026-05-08 04:43 | -17.94220 | -45.47745 | 38071 ft | 440 kts | 310° |
| 2026-05-08 04:43 | -17.90501 | -45.51415 | 38057 ft | 441 kts | 310° |
| 2026-05-08 04:44 | -17.85281 | -45.56563 | 38073 ft | 443 kts | 310° |
| 2026-05-08 04:44 | -17.81536 | -45.60253 | 38073 ft | 444 kts | 310° |
| 2026-05-08 04:45 | -17.77021 | -45.64700 | 38057 ft | 444 kts | 310° |
| 2026-05-08 04:45 | -17.72513 | -45.69136 | 38045 ft | 444 kts | 310° |
| 2026-05-08 04:46 | -17.68002 | -45.73571 | 38047 ft | 443 kts | 311° |
| 2026-05-08 04:46 | -17.63530 | -45.77966 | 38044 ft | 442 kts | 311° |
| 2026-05-08 04:47 | -17.59036 | -45.82381 | 38046 ft | 441 kts | 310° |
| 2026-05-08 04:47 | -17.54559 | -45.86776 | 38043 ft | 440 kts | 310° |
| 2026-05-08 04:48 | -17.50090 | -45.91158 | 38035 ft | 439 kts | 311° |
| 2026-05-08 04:48 | -17.45660 | -45.95497 | 38036 ft | 438 kts | 311° |
| 2026-05-08 04:49 | -17.41207 | -45.99858 | 38046 ft | 437 kts | 311° |
| 2026-05-08 04:49 | -17.36755 | -46.04216 | 38034 ft | 437 kts | 311° |
| 2026-05-08 04:50 | -17.32310 | -46.08564 | 38025 ft | 437 kts | 311° |
| 2026-05-08 04:50 | -17.27892 | -46.12883 | 38036 ft | 437 kts | 311° |
| 2026-05-08 04:51 | -17.23433 | -46.17240 | 38029 ft | 438 kts | 311° |
| 2026-05-08 04:51 | -17.18973 | -46.21593 | 38038 ft | 438 kts | 311° |
| 2026-05-08 04:52 | -17.14515 | -46.25942 | 38030 ft | 438 kts | 311° |
| 2026-05-08 04:52 | -17.10081 | -46.30264 | 38026 ft | 438 kts | 311° |
| 2026-05-08 04:53 | -17.05620 | -46.34610 | 38034 ft | 438 kts | 311° |
| 2026-05-08 04:53 | -17.01162 | -46.38951 | 38037 ft | 438 kts | 311° |
| 2026-05-08 04:54 | -16.96697 | -46.43295 | 38030 ft | 438 kts | 311° |
| 2026-05-08 04:54 | -16.92254 | -46.47615 | 38014 ft | 438 kts | 311° |
| 2026-05-08 04:55 | -16.87784 | -46.51959 | 38029 ft | 438 kts | 311° |
| 2026-05-08 04:55 | -16.83351 | -46.56303 | 38025 ft | 436 kts | 307° |
| 2026-05-08 04:56 | -16.79778 | -46.61248 | 38036 ft | 427 kts | 298° |
| 2026-05-08 04:56 | -16.76489 | -46.66418 | 38031 ft | 427 kts | 298° |
| 2026-05-08 04:57 | -16.73174 | -46.71591 | 38021 ft | 428 kts | 298° |
| 2026-05-08 04:57 | -16.69843 | -46.76732 | 38032 ft | 428 kts | 298° |
| 2026-05-08 04:58 | -16.66494 | -46.81878 | 37885 ft | 431 kts | 298° |
| 2026-05-08 04:58 | -16.64799 | -46.84484 | 37355 ft | 434 kts | 298° |
| 2026-05-08 04:58 | -16.63103 | -46.87085 | 36751 ft | 434 kts | 299° |
| 2026-05-08 04:59 | -16.61406 | -46.89687 | 36167 ft | 433 kts | 299° |
| 2026-05-08 04:59 | -16.59733 | -46.92251 | 35516 ft | 434 kts | 299° |
| 2026-05-08 04:59 | -16.58026 | -46.94869 | 34838 ft | 437 kts | 300° |
| 2026-05-08 04:59 | -16.56307 | -46.97505 | 34128 ft | 441 kts | 300° |
| 2026-05-08 05:00 | -16.54578 | -47.00156 | 33300 ft | 445 kts | 301° |
| 2026-05-08 05:00 | -16.52825 | -47.02841 | 32516 ft | 448 kts | 301° |
| 2026-05-08 05:00 | -16.51066 | -47.05533 | 31729 ft | 451 kts | 301° |
| 2026-05-08 05:00 | -16.49296 | -47.08242 | 30921 ft | 453 kts | 302° |
| 2026-05-08 05:01 | -16.47513 | -47.10967 | 30251 ft | 453 kts | 302° |
| 2026-05-08 05:01 | -16.45769 | -47.13634 | 29573 ft | 450 kts | 302° |
| 2026-05-08 05:01 | -16.44006 | -47.16327 | 28935 ft | 446 kts | 302° |
| 2026-05-08 05:01 | -16.42261 | -47.18994 | 28314 ft | 441 kts | 302° |
| 2026-05-08 05:02 | -16.40541 | -47.21622 | 27714 ft | 437 kts | 303° |
| 2026-05-08 05:02 | -16.38795 | -47.24195 | 27106 ft | 434 kts | 308° |
| 2026-05-08 05:02 | -16.36585 | -47.26330 | 26526 ft | 432 kts | 320° |
| 2026-05-08 05:02 | -16.34263 | -47.28230 | 25952 ft | 429 kts | 321° |
| 2026-05-08 05:03 | -16.31912 | -47.30135 | 25366 ft | 427 kts | 321° |
| 2026-05-08 05:03 | -16.29578 | -47.32038 | 24758 ft | 425 kts | 321° |
| 2026-05-08 05:03 | -16.27261 | -47.33945 | 24157 ft | 424 kts | 321° |
| 2026-05-08 05:03 | -16.24953 | -47.35859 | 23545 ft | 423 kts | 321° |
| 2026-05-08 05:04 | -16.22662 | -47.37769 | 22861 ft | 421 kts | 321° |
| 2026-05-08 05:04 | -16.20388 | -47.39670 | 22243 ft | 417 kts | 321° |
| 2026-05-08 05:04 | -16.18129 | -47.41558 | 21639 ft | 414 kts | 321° |
| 2026-05-08 05:04 | -16.15917 | -47.43406 | 21048 ft | 410 kts | 321° |
| 2026-05-08 05:05 | -16.13703 | -47.45255 | 20474 ft | 407 kts | 322° |
| 2026-05-08 05:05 | -16.11495 | -47.47098 | 19874 ft | 405 kts | 322° |
| 2026-05-08 05:05 | -16.09298 | -47.48931 | 19275 ft | 403 kts | 322° |
| 2026-05-08 05:05 | -16.07109 | -47.50756 | 18677 ft | 401 kts | 322° |
| 2026-05-08 05:06 | -16.04935 | -47.52568 | 18041 ft | 400 kts | 322° |
| 2026-05-08 05:06 | -16.02795 | -47.54351 | 17384 ft | 397 kts | 322° |
| 2026-05-08 05:06 | -16.00649 | -47.56139 | 16782 ft | 393 kts | 322° |
| 2026-05-08 05:06 | -15.98527 | -47.57910 | 16192 ft | 389 kts | 321° |
| 2026-05-08 05:07 | -15.96742 | -47.60014 | 15577 ft | 388 kts | 301° |
| 2026-05-08 05:07 | -15.95773 | -47.62606 | 15036 ft | 385 kts | 283° |
| 2026-05-08 05:07 | -15.95593 | -47.65235 | 14538 ft | 378 kts | 268° |
| 2026-05-08 05:07 | -15.95763 | -47.67928 | 13951 ft | 369 kts | 267° |
| 2026-05-08 05:08 | -15.95962 | -47.70525 | 13330 ft | 361 kts | 266° |
| 2026-05-08 05:08 | -15.96102 | -47.72345 | 12919 ft | 354 kts | 266° |